createdAt,value
2022-12-14T00:05:01.252Z,-0.95
2022-12-14T00:10:02.947Z,-0.86
2022-12-14T00:15:05.260Z,-0.80
2022-12-14T00:20:07.038Z,-0.76
2022-12-14T00:25:09.795Z,-0.79
2022-12-14T00:30:12.991Z,-0.82
2022-12-14T00:35:17.359Z,-0.78
2022-12-14T00:40:18.862Z,-0.76
2022-12-14T00:45:20.359Z,-0.69
2022-12-14T00:50:21.745Z,-0.69
2022-12-14T00:55:23.152Z,-0.57
2022-12-14T01:00:24.652Z,-0.62
2022-12-14T01:05:26.184Z,-0.61
2022-12-14T01:10:30.288Z,-0.62
2022-12-14T01:15:31.690Z,-0.57
2022-12-14T01:20:33.116Z,-0.54
2022-12-14T01:25:34.684Z,-0.54
2022-12-14T01:30:39.325Z,-0.56
2022-12-14T01:35:40.633Z,-0.54
2022-12-14T01:40:41.966Z,-0.57
2022-12-14T01:45:43.559Z,-0.53
2022-12-14T01:50:47.323Z,-0.54
2022-12-14T01:55:54.908Z,-0.56
2022-12-14T02:00:59.505Z,-0.57
2022-12-14T02:06:09.236Z,-0.62
2022-12-14T02:11:10.877Z,-0.62
2022-12-14T02:16:12.326Z,-0.64
2022-12-14T02:21:22.948Z,-0.56
2022-12-14T02:26:54.907Z,-0.59
2022-12-14T02:32:32.199Z,-0.59
2022-12-14T02:37:48.998Z,-0.61
2022-12-14T02:43:11.049Z,-0.67
2022-12-14T02:48:24.151Z,-0.75
2022-12-14T02:53:38.781Z,-0.73
2022-12-14T02:58:43.834Z,-0.65
2022-12-14T03:03:45.665Z,-0.65
2022-12-14T03:08:47.392Z,-0.63
2022-12-14T03:13:58.632Z,-0.56
2022-12-14T03:19:08.009Z,-0.50
2022-12-14T03:24:12.723Z,-0.48
2022-12-14T03:29:29.243Z,-0.44
2022-12-14T03:34:43.604Z,-0.54
2022-12-14T03:39:46.783Z,-0.63
2022-12-14T03:44:55.896Z,-0.69
2022-12-14T03:50:02.481Z,-0.72
2022-12-14T03:55:20.410Z,-0.65
2022-12-14T04:00:24.413Z,-0.51
2022-12-14T04:05:34.361Z,-0.51
2022-12-14T04:11:00.527Z,-0.60
2022-12-14T04:16:42.058Z,-0.64
2022-12-14T04:21:58.624Z,-0.65
2022-12-14T04:27:11.650Z,-0.63
2022-12-14T04:32:22.083Z,-0.60
2022-12-14T04:37:27.614Z,-0.49
2022-12-14T04:42:34.113Z,-0.38
2022-12-14T04:47:43.742Z,-0.33
2022-12-14T04:52:50.812Z,-0.34
2022-12-14T04:57:59.021Z,-0.46
2022-12-14T05:03:08.994Z,-0.47
2022-12-14T05:08:17.773Z,-0.33
2022-12-14T05:13:40.760Z,-0.36
2022-12-14T05:18:44.132Z,-0.24
2022-12-14T05:23:45.623Z,-0.18
2022-12-14T05:28:50.407Z,-0.10
2022-12-14T05:33:51.996Z,-0.07
2022-12-14T05:38:53.374Z,-0.17
2022-12-14T05:43:54.743Z,-0.26
2022-12-14T05:48:56.156Z,-0.28
2022-12-14T05:53:58.971Z,-0.25
2022-12-14T05:59:00.504Z,-0.24
2022-12-14T06:04:02.001Z,-0.23
2022-12-14T06:09:07.141Z,-0.22
2022-12-14T06:14:09.076Z,-0.20
2022-12-14T06:19:11.209Z,-0.18
2022-12-14T06:24:13.670Z,-0.22
2022-12-14T06:29:18.835Z,-0.17
2022-12-14T06:34:24.800Z,-0.11
2022-12-14T06:39:29.647Z,-0.10
2022-12-14T06:44:31.216Z,-0.11
2022-12-14T06:49:32.790Z,-0.10
2022-12-14T06:54:34.152Z,-0.05
2022-12-14T06:59:35.579Z,0.10
2022-12-14T07:04:36.925Z,0.13
2022-12-14T07:09:38.444Z,0.03
2022-12-14T07:14:39.962Z,0.09
2022-12-14T07:19:43.580Z,0.05
2022-12-14T07:24:45.050Z,0.11
2022-12-14T07:29:48.623Z,0.12
2022-12-14T07:34:50.051Z,0.15
2022-12-14T07:39:51.411Z,0.11
2022-12-14T07:44:53.015Z,0.13
2022-12-14T07:49:54.468Z,0.10
2022-12-14T07:54:55.839Z,0.15
2022-12-14T07:59:57.787Z,0.17
2022-12-14T08:04:59.162Z,0.21
2022-12-14T08:10:00.632Z,0.21
2022-12-14T08:15:02.008Z,0.32
2022-12-14T08:20:04.153Z,0.41
2022-12-14T08:25:05.932Z,0.35
2022-12-14T08:30:08.220Z,0.27
2022-12-14T08:35:09.726Z,0.21
2022-12-14T08:40:11.445Z,0.13
2022-12-14T08:45:12.956Z,0.09
2022-12-14T08:50:14.491Z,0.11
2022-12-14T08:55:21.160Z,0.13
2022-12-14T09:00:26.945Z,0.05
2022-12-14T09:05:28.336Z,0.04
2022-12-14T09:10:29.766Z,0.09
2022-12-14T09:15:31.126Z,0.11
2022-12-14T09:20:32.591Z,0.10
2022-12-14T09:25:33.939Z,0.16
2022-12-14T09:30:35.446Z,0.19
2022-12-14T09:35:36.881Z,0.14
2022-12-14T09:40:42.756Z,0.15
2022-12-14T09:45:54.644Z,0.18
2022-12-14T09:50:56.245Z,0.16
2022-12-14T09:55:58.776Z,0.23
2022-12-14T10:01:19.091Z,0.27
2022-12-14T10:06:29.039Z,0.37
2022-12-14T10:11:44.868Z,0.39
2022-12-14T10:17:14.318Z,0.40
2022-12-14T10:22:20.198Z,0.47
2022-12-14T10:27:24.318Z,0.49
2022-12-14T10:32:34.809Z,0.43
2022-12-14T10:37:39.726Z,0.46
2022-12-14T10:42:52.292Z,0.50
2022-12-14T10:48:11.372Z,0.40
2022-12-14T10:53:17.453Z,0.40
2022-12-14T10:58:18.892Z,0.43
2022-12-14T11:03:20.607Z,0.41
2022-12-14T11:08:48.180Z,0.59
2022-12-14T11:14:10.091Z,0.57
2022-12-14T11:19:23.239Z,0.57
2022-12-14T11:24:27.498Z,0.62
2022-12-14T11:29:33.288Z,0.60
2022-12-14T11:34:41.450Z,0.59
2022-12-14T11:39:43.108Z,0.64
2022-12-14T11:44:46.350Z,0.60
2022-12-14T11:49:54.354Z,0.53
2022-12-14T11:54:55.716Z,0.60
2022-12-14T12:00:21.602Z,0.56
2022-12-14T12:05:24.042Z,0.67
2022-12-14T12:10:40.275Z,0.82
2022-12-14T12:15:50.017Z,0.97
2022-12-14T12:21:15.945Z,1.03
2022-12-14T12:26:30.642Z,1.01
2022-12-14T12:31:42.025Z,0.96
2022-12-14T12:37:03.054Z,1.81
2022-12-14T12:42:45.008Z,1.48
2022-12-14T12:47:53.268Z,1.05
2022-12-14T12:53:04.305Z,0.94
2022-12-14T12:58:09.952Z,0.85
2022-12-14T13:03:37.584Z,0.88
2022-12-14T13:08:41.645Z,1.01
2022-12-14T13:13:48.589Z,1.02
2022-12-14T13:19:40.547Z,1.01
2022-12-14T13:24:20.448Z,0.97
2022-12-14T13:29:30.935Z,0.94
2022-12-14T13:34:44.091Z,1.18
2022-12-14T13:40:23.227Z,1.35
2022-12-14T13:45:31.242Z,1.67
2022-12-14T13:50:39.678Z,1.57
2022-12-14T13:55:51.881Z,1.50
2022-12-14T14:00:59.372Z,1.30
2022-12-14T14:06:23.072Z,1.21
2022-12-14T14:11:42.466Z,1.20
2022-12-14T14:16:50.497Z,1.27
2022-12-14T14:22:26.461Z,1.42
2022-12-14T14:27:50.423Z,1.47
2022-12-14T14:32:54.310Z,1.45
2022-12-14T14:38:01.726Z,1.42
2022-12-14T14:43:17.204Z,1.34
2022-12-14T14:48:34.624Z,0.86
2022-12-14T14:53:38.650Z,0.95
2022-12-14T14:58:42.137Z,0.87
2022-12-14T15:03:52.769Z,0.94
2022-12-14T15:09:09.709Z,0.65
2022-12-14T15:14:35.376Z,0.66
2022-12-14T15:19:38.696Z,0.56
2022-12-14T15:24:43.167Z,0.57
2022-12-14T15:29:49.438Z,0.57
2022-12-14T15:34:56.956Z,0.52
2022-12-14T15:40:07.078Z,0.32
2022-12-14T15:45:15.029Z,0.45
2022-12-14T15:50:30.253Z,0.38
2022-12-14T15:55:41.008Z,0.52
2022-12-14T16:00:49.277Z,0.41
2022-12-14T16:05:51.111Z,0.39
2022-12-14T16:10:55.557Z,0.34
2022-12-14T16:15:58.495Z,0.23
2022-12-14T16:21:03.289Z,0.22
2022-12-14T16:26:37.498Z,0.21
2022-12-14T16:31:39.155Z,0.25
2022-12-14T16:36:41.008Z,0.16
2022-12-14T16:42:00.761Z,0.23
2022-12-14T16:47:05.109Z,0.53
2022-12-14T16:52:09.488Z,0.43
2022-12-14T16:57:23.939Z,0.38
2022-12-14T17:02:30.655Z,0.30
2022-12-14T17:07:33.464Z,0.27
2022-12-14T17:12:34.848Z,0.30
2022-12-14T17:17:36.535Z,0.33
2022-12-14T17:22:38.090Z,0.35
2022-12-14T17:27:40.810Z,0.42
2022-12-14T17:32:42.784Z,0.25
2022-12-14T17:37:44.256Z,0.14
2022-12-14T17:42:51.861Z,0.09
2022-12-14T17:47:54.449Z,0.33
2022-12-14T17:52:55.813Z,0.46
2022-12-14T17:57:58.194Z,0.19
2022-12-14T18:03:00.069Z,0.08
2022-12-14T18:08:01.664Z,0.19
2022-12-14T18:13:04.028Z,0.21
2022-12-14T18:18:06.055Z,0.23
2022-12-14T18:23:13.892Z,0.23
2022-12-14T18:28:15.729Z,0.23
2022-12-14T18:33:20.240Z,0.27
2022-12-14T18:38:22.016Z,0.30
2022-12-14T18:43:26.196Z,0.30
2022-12-14T18:48:27.803Z,0.20
2022-12-14T18:53:29.710Z,0.15
2022-12-14T18:58:31.399Z,0.34
2022-12-14T19:03:33.410Z,0.24
2022-12-14T19:08:35.134Z,0.15
2022-12-14T19:13:36.736Z,0.07
2022-12-14T19:18:38.423Z,0.06
2022-12-14T19:23:39.812Z,0.17
2022-12-14T19:28:41.192Z,0.01
2022-12-14T19:33:42.581Z,-0.04
2022-12-14T19:38:44.800Z,0.09
2022-12-14T19:43:50.526Z,-0.05
2022-12-14T19:48:52.232Z,0.04
2022-12-14T19:53:55.031Z,-0.05
2022-12-14T19:59:00.773Z,0.01
2022-12-14T20:04:02.406Z,-0.02
2022-12-14T20:09:05.773Z,-0.09
2022-12-14T20:14:07.168Z,-0.20
2022-12-14T20:19:10.806Z,-0.14
2022-12-14T20:24:13.210Z,-0.23
2022-12-14T20:29:15.248Z,-0.24
2022-12-14T20:34:16.860Z,-0.23
2022-12-14T20:39:19.806Z,0.02
2022-12-14T20:44:21.767Z,0.02
2022-12-14T20:49:29.370Z,-0.15
2022-12-14T20:54:30.809Z,-0.16
2022-12-14T20:59:33.285Z,-0.22
2022-12-14T21:04:34.955Z,-0.09
2022-12-14T21:09:36.411Z,0.05
2022-12-14T21:14:42.318Z,-0.04
2022-12-14T21:19:43.867Z,-0.19
2022-12-14T21:25:02.896Z,-0.23
2022-12-14T21:30:09.063Z,-0.51
2022-12-14T21:35:10.495Z,-0.87
2022-12-14T21:40:32.190Z,-0.94
2022-12-14T21:45:33.632Z,-1.22
2022-12-14T21:50:35.255Z,-1.47
2022-12-14T21:55:36.659Z,-1.63
2022-12-14T22:00:38.173Z,-1.71
2022-12-14T22:05:39.600Z,-1.71
2022-12-14T22:10:41.116Z,-1.67
2022-12-14T22:15:42.594Z,-1.75
2022-12-14T22:20:43.935Z,-1.82
2022-12-14T22:25:50.110Z,-1.84
2022-12-14T22:30:51.428Z,-1.91
2022-12-14T22:35:52.955Z,-1.94
2022-12-14T22:41:01.479Z,-2.00
2022-12-14T22:46:03.609Z,-2.05
2022-12-14T22:51:10.046Z,-2.00
2022-12-14T22:56:21.433Z,-2.01
2022-12-14T23:01:23.482Z,-2.03
2022-12-14T23:06:24.987Z,-2.01
2022-12-14T23:11:45.109Z,-2.08
2022-12-14T23:17:05.168Z,-2.11
2022-12-14T23:22:25.098Z,-2.13
2022-12-14T23:27:45.557Z,-2.00
2022-12-14T23:33:05.940Z,-2.13
2022-12-14T23:38:26.723Z,-2.18
2022-12-14T23:43:46.536Z,-2.23
2022-12-14T23:49:10.544Z,-2.25
2022-12-14T23:54:35.338Z,-2.26
2022-12-14T23:59:55.256Z,-2.29
